sensor_id;sensor_type;location;lat;lon;timestamp;P1;durP1;ratioP1;P2;durP2;ratioP2
47251;SDS011;32991;51.374;11.586;2023-07-30T00:00:55;5.57;;;5.07;;
47251;SDS011;32991;51.374;11.586;2023-07-30T00:03:22;9.07;;;5.38;;
47251;SDS011;32991;51.374;11.586;2023-07-30T00:05:52;7.40;;;5.78;;
47251;SDS011;32991;51.374;11.586;2023-07-30T00:08:19;9.00;;;6.53;;
47251;SDS011;32991;51.374;11.586;2023-07-30T00:10:46;8.35;;;6.20;;
47251;SDS011;32991;51.374;11.586;2023-07-30T00:13:13;7.55;;;5.90;;
47251;SDS011;32991;51.374;11.586;2023-07-30T00:15:39;8.48;;;5.80;;
47251;SDS011;32991;51.374;11.586;2023-07-30T00:18:06;9.57;;;5.57;;
47251;SDS011;32991;51.374;11.586;2023-07-30T00:20:36;8.20;;;5.78;;
47251;SDS011;32991;51.374;11.586;2023-07-30T00:23:03;6.72;;;5.53;;
47251;SDS011;32991;51.374;11.586;2023-07-30T00:25:29;7.50;;;6.30;;
47251;SDS011;32991;51.374;11.586;2023-07-30T00:27:56;6.70;;;5.82;;
47251;SDS011;32991;51.374;11.586;2023-07-30T00:30:23;6.93;;;6.10;;
47251;SDS011;32991;51.374;11.586;2023-07-30T00:32:49;8.15;;;6.13;;
47251;SDS011;32991;51.374;11.586;2023-07-30T00:35:16;7.22;;;5.20;;
47251;SDS011;32991;51.374;11.586;2023-07-30T00:37:42;6.78;;;4.95;;
47251;SDS011;32991;51.374;11.586;2023-07-30T00:40:09;4.95;;;4.50;;
47251;SDS011;32991;51.374;11.586;2023-07-30T00:42:36;4.80;;;4.40;;
47251;SDS011;32991;51.374;11.586;2023-07-30T00:45:03;7.90;;;4.65;;
47251;SDS011;32991;51.374;11.586;2023-07-30T00:47:30;5.38;;;4.45;;
47251;SDS011;32991;51.374;11.586;2023-07-30T00:49:57;7.30;;;4.20;;
47251;SDS011;32991;51.374;11.586;2023-07-30T00:52:24;6.47;;;4.10;;
47251;SDS011;32991;51.374;11.586;2023-07-30T00:54:52;6.72;;;4.28;;
47251;SDS011;32991;51.374;11.586;2023-07-30T00:57:20;5.88;;;3.88;;
47251;SDS011;32991;51.374;11.586;2023-07-30T00:59:47;5.65;;;4.00;;
47251;SDS011;32991;51.374;11.586;2023-07-30T01:02:14;5.63;;;3.90;;
47251;SDS011;32991;51.374;11.586;2023-07-30T01:04:41;5.65;;;4.82;;
47251;SDS011;32991;51.374;11.586;2023-07-30T01:07:08;6.85;;;4.78;;
47251;SDS011;32991;51.374;11.586;2023-07-30T01:09:35;9.05;;;5.63;;
47251;SDS011;32991;51.374;11.586;2023-07-30T01:12:02;7.03;;;5.18;;
47251;SDS011;32991;51.374;11.586;2023-07-30T01:14:30;11.13;;;5.47;;
47251;SDS011;32991;51.374;11.586;2023-07-30T01:16:58;6.28;;;5.13;;
47251;SDS011;32991;51.374;11.586;2023-07-30T01:19:24;6.30;;;5.68;;
47251;SDS011;32991;51.374;11.586;2023-07-30T01:21:51;13.30;;;6.68;;
47251;SDS011;32991;51.374;11.586;2023-07-30T01:24:18;8.63;;;5.95;;
47251;SDS011;32991;51.374;11.586;2023-07-30T01:26:46;7.28;;;5.78;;
47251;SDS011;32991;51.374;11.586;2023-07-30T01:29:15;6.75;;;5.63;;
47251;SDS011;32991;51.374;11.586;2023-07-30T01:31:45;7.28;;;5.38;;
47251;SDS011;32991;51.374;11.586;2023-07-30T01:34:15;9.60;;;4.88;;
47251;SDS011;32991;51.374;11.586;2023-07-30T01:36:42;7.32;;;5.72;;
47251;SDS011;32991;51.374;11.586;2023-07-30T01:39:09;6.63;;;5.00;;
47251;SDS011;32991;51.374;11.586;2023-07-30T01:41:36;5.65;;;4.93;;
47251;SDS011;32991;51.374;11.586;2023-07-30T01:44:03;5.38;;;4.88;;
47251;SDS011;32991;51.374;11.586;2023-07-30T01:46:30;5.43;;;4.90;;
47251;SDS011;32991;51.374;11.586;2023-07-30T01:48:56;5.38;;;4.20;;
47251;SDS011;32991;51.374;11.586;2023-07-30T01:51:23;7.03;;;4.43;;
47251;SDS011;32991;51.374;11.586;2023-07-30T01:53:50;5.28;;;4.60;;
47251;SDS011;32991;51.374;11.586;2023-07-30T01:56:16;9.43;;;4.30;;
47251;SDS011;32991;51.374;11.586;2023-07-30T01:58:43;5.85;;;4.53;;
47251;SDS011;32991;51.374;11.586;2023-07-30T02:01:09;7.65;;;5.10;;
47251;SDS011;32991;51.374;11.586;2023-07-30T02:03:36;5.03;;;4.50;;
47251;SDS011;32991;51.374;11.586;2023-07-30T02:06:03;7.32;;;3.88;;
47251;SDS011;32991;51.374;11.586;2023-07-30T02:08:30;7.03;;;4.55;;
47251;SDS011;32991;51.374;11.586;2023-07-30T02:10:57;7.57;;;4.43;;
47251;SDS011;32991;51.374;11.586;2023-07-30T02:13:24;8.70;;;4.60;;
47251;SDS011;32991;51.374;11.586;2023-07-30T02:15:51;9.88;;;4.60;;
47251;SDS011;32991;51.374;11.586;2023-07-30T02:18:18;4.78;;;4.00;;
47251;SDS011;32991;51.374;11.586;2023-07-30T02:20:44;6.07;;;4.40;;
47251;SDS011;32991;51.374;11.586;2023-07-30T02:23:11;8.30;;;4.32;;
47251;SDS011;32991;51.374;11.586;2023-07-30T02:25:39;8.63;;;5.10;;
47251;SDS011;32991;51.374;11.586;2023-07-30T02:28:06;6.40;;;4.68;;
47251;SDS011;32991;51.374;11.586;2023-07-30T02:30:33;9.60;;;4.65;;
47251;SDS011;32991;51.374;11.586;2023-07-30T02:33:00;7.53;;;5.00;;
47251;SDS011;32991;51.374;11.586;2023-07-30T02:35:27;13.60;;;5.40;;
47251;SDS011;32991;51.374;11.586;2023-07-30T02:37:54;10.10;;;5.00;;
47251;SDS011;32991;51.374;11.586;2023-07-30T02:40:20;7.10;;;4.88;;
47251;SDS011;32991;51.374;11.586;2023-07-30T02:42:47;12.02;;;4.82;;
47251;SDS011;32991;51.374;11.586;2023-07-30T02:45:13;7.70;;;4.95;;
47251;SDS011;32991;51.374;11.586;2023-07-30T02:47:40;7.00;;;4.70;;
47251;SDS011;32991;51.374;11.586;2023-07-30T02:50:07;11.13;;;4.93;;
47251;SDS011;32991;51.374;11.586;2023-07-30T02:52:35;9.70;;;4.72;;
47251;SDS011;32991;51.374;11.586;2023-07-30T02:55:01;5.50;;;4.10;;
47251;SDS011;32991;51.374;11.586;2023-07-30T02:57:28;19.88;;;5.47;;
47251;SDS011;32991;51.374;11.586;2023-07-30T02:59:55;12.57;;;5.20;;
47251;SDS011;32991;51.374;11.586;2023-07-30T03:02:21;6.57;;;5.10;;
47251;SDS011;32991;51.374;11.586;2023-07-30T03:04:48;8.43;;;5.00;;
47251;SDS011;32991;51.374;11.586;2023-07-30T03:07:15;11.27;;;5.47;;
47251;SDS011;32991;51.374;11.586;2023-07-30T03:09:42;9.70;;;5.47;;
47251;SDS011;32991;51.374;11.586;2023-07-30T03:12:08;6.85;;;4.68;;
47251;SDS011;32991;51.374;11.586;2023-07-30T03:14:35;9.85;;;5.35;;
47251;SDS011;32991;51.374;11.586;2023-07-30T03:17:02;9.90;;;5.10;;
47251;SDS011;32991;51.374;11.586;2023-07-30T03:19:31;6.35;;;4.65;;
47251;SDS011;32991;51.374;11.586;2023-07-30T03:21:58;5.60;;;4.75;;
47251;SDS011;32991;51.374;11.586;2023-07-30T03:24:24;8.48;;;4.85;;
47251;SDS011;32991;51.374;11.586;2023-07-30T03:26:51;5.88;;;4.57;;
47251;SDS011;32991;51.374;11.586;2023-07-30T03:29:17;4.97;;;4.20;;
47251;SDS011;32991;51.374;11.586;2023-07-30T03:31:44;5.53;;;4.28;;
47251;SDS011;32991;51.374;11.586;2023-07-30T03:34:10;6.10;;;4.43;;
47251;SDS011;32991;51.374;11.586;2023-07-30T03:36:38;6.30;;;3.78;;
47251;SDS011;32991;51.374;11.586;2023-07-30T03:39:04;5.22;;;4.03;;
47251;SDS011;32991;51.374;11.586;2023-07-30T03:41:31;4.35;;;3.83;;
47251;SDS011;32991;51.374;11.586;2023-07-30T03:43:58;6.43;;;4.35;;
47251;SDS011;32991;51.374;11.586;2023-07-30T03:46:24;5.85;;;3.58;;
47251;SDS011;32991;51.374;11.586;2023-07-30T03:48:51;5.75;;;3.42;;
47251;SDS011;32991;51.374;11.586;2023-07-30T03:51:18;6.38;;;3.83;;
47251;SDS011;32991;51.374;11.586;2023-07-30T03:53:44;7.80;;;3.67;;
47251;SDS011;32991;51.374;11.586;2023-07-30T03:56:11;4.18;;;3.70;;
47251;SDS011;32991;51.374;11.586;2023-07-30T03:58:37;5.03;;;3.65;;
47251;SDS011;32991;51.374;11.586;2023-07-30T04:01:04;4.95;;;3.97;;
47251;SDS011;32991;51.374;11.586;2023-07-30T04:03:33;6.28;;;3.85;;
47251;SDS011;32991;51.374;11.586;2023-07-30T04:06:00;3.97;;;3.40;;
47251;SDS011;32991;51.374;11.586;2023-07-30T04:08:27;5.20;;;3.47;;
47251;SDS011;32991;51.374;11.586;2023-07-30T04:10:53;4.90;;;3.70;;
47251;SDS011;32991;51.374;11.586;2023-07-30T04:13:20;4.32;;;3.55;;
47251;SDS011;32991;51.374;11.586;2023-07-30T04:15:47;5.03;;;3.67;;
47251;SDS011;32991;51.374;11.586;2023-07-30T04:18:14;4.05;;;3.65;;
47251;SDS011;32991;51.374;11.586;2023-07-30T04:20:41;5.38;;;3.33;;
47251;SDS011;32991;51.374;11.586;2023-07-30T04:23:07;3.83;;;2.72;;
47251;SDS011;32991;51.374;11.586;2023-07-30T04:25:34;4.60;;;2.90;;
47251;SDS011;32991;51.374;11.586;2023-07-30T04:28:00;6.05;;;3.25;;
47251;SDS011;32991;51.374;11.586;2023-07-30T04:30:27;3.95;;;2.85;;
47251;SDS011;32991;51.374;11.586;2023-07-30T04:32:54;3.67;;;3.17;;
47251;SDS011;32991;51.374;11.586;2023-07-30T04:35:21;4.25;;;2.75;;
47251;SDS011;32991;51.374;11.586;2023-07-30T04:37:47;4.57;;;2.83;;
47251;SDS011;32991;51.374;11.586;2023-07-30T04:40:15;7.97;;;3.20;;
47251;SDS011;32991;51.374;11.586;2023-07-30T04:42:41;4.60;;;3.13;;
47251;SDS011;32991;51.374;11.586;2023-07-30T04:45:08;4.65;;;3.15;;
47251;SDS011;32991;51.374;11.586;2023-07-30T04:47:38;3.55;;;2.92;;
47251;SDS011;32991;51.374;11.586;2023-07-30T04:50:05;2.85;;;2.53;;
47251;SDS011;32991;51.374;11.586;2023-07-30T04:52:32;4.57;;;2.70;;
47251;SDS011;32991;51.374;11.586;2023-07-30T04:54:58;4.95;;;2.55;;
47251;SDS011;32991;51.374;11.586;2023-07-30T04:57:25;3.05;;;2.60;;
47251;SDS011;32991;51.374;11.586;2023-07-30T04:59:52;2.65;;;2.45;;
47251;SDS011;32991;51.374;11.586;2023-07-30T05:02:19;2.70;;;2.50;;
47251;SDS011;32991;51.374;11.586;2023-07-30T05:04:45;4.35;;;2.70;;
47251;SDS011;32991;51.374;11.586;2023-07-30T05:07:12;5.00;;;2.55;;
47251;SDS011;32991;51.374;11.586;2023-07-30T05:09:38;2.40;;;2.20;;
47251;SDS011;32991;51.374;11.586;2023-07-30T05:12:05;2.67;;;2.42;;
47251;SDS011;32991;51.374;11.586;2023-07-30T05:14:32;4.22;;;2.50;;
47251;SDS011;32991;51.374;11.586;2023-07-30T05:16:58;2.30;;;2.05;;
47251;SDS011;32991;51.374;11.586;2023-07-30T05:19:25;2.50;;;2.30;;
47251;SDS011;32991;51.374;11.586;2023-07-30T05:21:51;2.95;;;2.53;;
47251;SDS011;32991;51.374;11.586;2023-07-30T05:24:18;2.30;;;2.10;;
47251;SDS011;32991;51.374;11.586;2023-07-30T05:26:44;2.92;;;2.15;;
47251;SDS011;32991;51.374;11.586;2023-07-30T05:29:11;3.13;;;2.15;;
47251;SDS011;32991;51.374;11.586;2023-07-30T05:31:37;3.05;;;2.22;;
47251;SDS011;32991;51.374;11.586;2023-07-30T05:34:04;2.60;;;2.10;;
47251;SDS011;32991;51.374;11.586;2023-07-30T05:36:31;2.50;;;2.30;;
47251;SDS011;32991;51.374;11.586;2023-07-30T05:38:58;2.80;;;2.08;;
47251;SDS011;32991;51.374;11.586;2023-07-30T05:41:24;3.45;;;2.08;;
47251;SDS011;32991;51.374;11.586;2023-07-30T05:43:51;4.15;;;2.20;;
47251;SDS011;32991;51.374;11.586;2023-07-30T05:46:17;2.20;;;1.98;;
47251;SDS011;32991;51.374;11.586;2023-07-30T05:48:44;4.28;;;1.80;;
47251;SDS011;32991;51.374;11.586;2023-07-30T05:51:10;4.60;;;2.10;;
47251;SDS011;32991;51.374;11.586;2023-07-30T05:53:37;3.70;;;1.90;;
47251;SDS011;32991;51.374;11.586;2023-07-30T05:56:04;1.85;;;1.73;;
47251;SDS011;32991;51.374;11.586;2023-07-30T05:58:30;3.47;;;1.90;;
47251;SDS011;32991;51.374;11.586;2023-07-30T06:00:57;3.20;;;2.22;;
47251;SDS011;32991;51.374;11.586;2023-07-30T06:03:24;3.72;;;1.80;;
47251;SDS011;32991;51.374;11.586;2023-07-30T06:05:50;4.60;;;2.00;;
47251;SDS011;32991;51.374;11.586;2023-07-30T06:08:17;3.38;;;1.70;;
47251;SDS011;32991;51.374;11.586;2023-07-30T06:10:44;5.78;;;1.92;;
47251;SDS011;32991;51.374;11.586;2023-07-30T06:13:12;2.65;;;1.75;;
47251;SDS011;32991;51.374;11.586;2023-07-30T06:15:39;4.70;;;1.70;;
47251;SDS011;32991;51.374;11.586;2023-07-30T06:18:06;4.15;;;1.70;;
47251;SDS011;32991;51.374;11.586;2023-07-30T06:20:32;2.95;;;1.70;;
47251;SDS011;32991;51.374;11.586;2023-07-30T06:22:59;3.95;;;1.95;;
47251;SDS011;32991;51.374;11.586;2023-07-30T06:25:25;3.53;;;1.67;;
47251;SDS011;32991;51.374;11.586;2023-07-30T06:27:52;3.08;;;2.10;;
47251;SDS011;32991;51.374;11.586;2023-07-30T06:30:19;5.30;;;2.00;;
47251;SDS011;32991;51.374;11.586;2023-07-30T06:32:45;5.03;;;2.00;;
47251;SDS011;32991;51.374;11.586;2023-07-30T06:35:12;3.80;;;1.90;;
47251;SDS011;32991;51.374;11.586;2023-07-30T06:37:38;2.78;;;2.10;;
47251;SDS011;32991;51.374;11.586;2023-07-30T06:40:05;4.40;;;2.30;;
47251;SDS011;32991;51.374;11.586;2023-07-30T06:42:32;2.85;;;2.10;;
47251;SDS011;32991;51.374;11.586;2023-07-30T06:44:59;7.10;;;2.97;;
47251;SDS011;32991;51.374;11.586;2023-07-30T06:47:26;4.90;;;2.08;;
47251;SDS011;32991;51.374;11.586;2023-07-30T06:49:53;3.35;;;2.15;;
47251;SDS011;32991;51.374;11.586;2023-07-30T06:52:19;10.60;;;2.20;;
47251;SDS011;32991;51.374;11.586;2023-07-30T06:54:46;4.57;;;2.10;;
47251;SDS011;32991;51.374;11.586;2023-07-30T06:57:13;4.07;;;1.95;;
47251;SDS011;32991;51.374;11.586;2023-07-30T06:59:40;3.05;;;1.75;;
47251;SDS011;32991;51.374;11.586;2023-07-30T07:02:07;3.92;;;1.58;;
47251;SDS011;32991;51.374;11.586;2023-07-30T07:04:40;2.83;;;1.83;;
47251;SDS011;32991;51.374;11.586;2023-07-30T07:07:06;2.83;;;1.80;;
47251;SDS011;32991;51.374;11.586;2023-07-30T07:09:33;5.15;;;2.10;;
47251;SDS011;32991;51.374;11.586;2023-07-30T07:11:59;3.35;;;2.20;;
47251;SDS011;32991;51.374;11.586;2023-07-30T07:14:26;2.45;;;1.92;;
47251;SDS011;32991;51.374;11.586;2023-07-30T07:16:53;3.70;;;2.10;;
47251;SDS011;32991;51.374;11.586;2023-07-30T07:19:21;2.30;;;1.88;;
47251;SDS011;32991;51.374;11.586;2023-07-30T07:21:48;5.22;;;1.90;;
47251;SDS011;32991;51.374;11.586;2023-07-30T07:24:15;4.10;;;1.67;;
47251;SDS011;32991;51.374;11.586;2023-07-30T07:26:42;3.92;;;1.90;;
47251;SDS011;32991;51.374;11.586;2023-07-30T07:29:09;2.90;;;1.90;;
47251;SDS011;32991;51.374;11.586;2023-07-30T07:31:35;4.85;;;2.10;;
47251;SDS011;32991;51.374;11.586;2023-07-30T07:34:02;5.03;;;2.00;;
47251;SDS011;32991;51.374;11.586;2023-07-30T07:36:29;2.55;;;1.67;;
47251;SDS011;32991;51.374;11.586;2023-07-30T07:38:55;2.38;;;1.55;;
47251;SDS011;32991;51.374;11.586;2023-07-30T07:41:22;6.28;;;2.00;;
47251;SDS011;32991;51.374;11.586;2023-07-30T07:43:49;3.33;;;1.90;;
47251;SDS011;32991;51.374;11.586;2023-07-30T07:46:15;2.75;;;1.70;;
47251;SDS011;32991;51.374;11.586;2023-07-30T07:48:42;4.60;;;1.75;;
47251;SDS011;32991;51.374;11.586;2023-07-30T07:51:09;3.22;;;2.10;;
47251;SDS011;32991;51.374;11.586;2023-07-30T07:53:37;4.72;;;1.88;;
47251;SDS011;32991;51.374;11.586;2023-07-30T07:56:04;2.20;;;1.70;;
47251;SDS011;32991;51.374;11.586;2023-07-30T07:58:31;2.25;;;1.65;;
47251;SDS011;32991;51.374;11.586;2023-07-30T08:00:58;4.18;;;1.70;;
47251;SDS011;32991;51.374;11.586;2023-07-30T08:03:26;2.20;;;1.67;;
47251;SDS011;32991;51.374;11.586;2023-07-30T08:05:56;2.65;;;1.80;;
47251;SDS011;32991;51.374;11.586;2023-07-30T08:08:25;3.35;;;1.60;;
47251;SDS011;32991;51.374;11.586;2023-07-30T08:10:52;4.13;;;2.22;;
47251;SDS011;32991;51.374;11.586;2023-07-30T08:13:19;2.17;;;1.98;;
47251;SDS011;32991;51.374;11.586;2023-07-30T08:15:46;2.38;;;1.83;;
47251;SDS011;32991;51.374;11.586;2023-07-30T08:18:13;2.63;;;2.17;;
47251;SDS011;32991;51.374;11.586;2023-07-30T08:20:39;3.75;;;1.50;;
47251;SDS011;32991;51.374;11.586;2023-07-30T08:23:06;3.42;;;1.55;;
47251;SDS011;32991;51.374;11.586;2023-07-30T08:25:32;1.70;;;1.35;;
47251;SDS011;32991;51.374;11.586;2023-07-30T08:27:59;5.43;;;1.52;;
47251;SDS011;32991;51.374;11.586;2023-07-30T08:30:26;2.13;;;1.58;;
47251;SDS011;32991;51.374;11.586;2023-07-30T08:32:52;2.65;;;1.63;;
47251;SDS011;32991;51.374;11.586;2023-07-30T08:35:19;3.08;;;1.40;;
47251;SDS011;32991;51.374;11.586;2023-07-30T08:37:45;1.40;;;1.30;;
47251;SDS011;32991;51.374;11.586;2023-07-30T08:40:12;4.18;;;1.40;;
47251;SDS011;32991;51.374;11.586;2023-07-30T08:42:44;1.13;;;1.02;;
47251;SDS011;32991;51.374;11.586;2023-07-30T08:45:10;1.67;;;1.40;;
47251;SDS011;32991;51.374;11.586;2023-07-30T08:47:39;2.20;;;1.50;;
47251;SDS011;32991;51.374;11.586;2023-07-30T08:50:06;2.58;;;1.20;;
47251;SDS011;32991;51.374;11.586;2023-07-30T08:52:32;3.30;;;1.23;;
47251;SDS011;32991;51.374;11.586;2023-07-30T08:55:02;3.40;;;1.30;;
47251;SDS011;32991;51.374;11.586;2023-07-30T08:57:29;1.38;;;1.13;;
47251;SDS011;32991;51.374;11.586;2023-07-30T09:00:03;1.77;;;1.38;;
47251;SDS011;32991;51.374;11.586;2023-07-30T09:02:45;2.90;;;1.20;;
47251;SDS011;32991;51.374;11.586;2023-07-30T09:05:20;2.67;;;1.35;;
47251;SDS011;32991;51.374;11.586;2023-07-30T09:07:47;2.05;;;1.50;;
47251;SDS011;32991;51.374;11.586;2023-07-30T09:10:14;2.05;;;1.60;;
47251;SDS011;32991;51.374;11.586;2023-07-30T09:12:41;2.15;;;1.35;;
47251;SDS011;32991;51.374;11.586;2023-07-30T09:15:09;1.30;;;1.20;;
47251;SDS011;32991;51.374;11.586;2023-07-30T09:17:36;1.95;;;1.10;;
47251;SDS011;32991;51.374;11.586;2023-07-30T09:20:03;1.25;;;1.13;;
47251;SDS011;32991;51.374;11.586;2023-07-30T09:22:31;2.22;;;1.20;;
47251;SDS011;32991;51.374;11.586;2023-07-30T09:25:08;1.55;;;1.02;;
47251;SDS011;32991;51.374;11.586;2023-07-30T09:27:34;2.38;;;1.27;;
47251;SDS011;32991;51.374;11.586;2023-07-30T09:30:02;1.20;;;0.90;;
47251;SDS011;32991;51.374;11.586;2023-07-30T09:32:32;1.40;;;0.80;;
47251;SDS011;32991;51.374;11.586;2023-07-30T09:35:06;1.05;;;0.98;;
47251;SDS011;32991;51.374;11.586;2023-07-30T09:37:35;2.13;;;0.93;;
47251;SDS011;32991;51.374;11.586;2023-07-30T09:40:07;2.95;;;1.20;;
47251;SDS011;32991;51.374;11.586;2023-07-30T09:42:35;6.60;;;1.23;;
47251;SDS011;32991;51.374;11.586;2023-07-30T09:45:06;2.20;;;1.42;;
47251;SDS011;32991;51.374;11.586;2023-07-30T09:47:38;1.52;;;0.95;;
47251;SDS011;32991;51.374;11.586;2023-07-30T09:50:05;3.80;;;0.95;;
47251;SDS011;32991;51.374;11.586;2023-07-30T09:52:32;1.05;;;1.00;;
47251;SDS011;32991;51.374;11.586;2023-07-30T09:54:59;1.10;;;1.00;;
47251;SDS011;32991;51.374;11.586;2023-07-30T09:57:26;1.20;;;0.93;;
47251;SDS011;32991;51.374;11.586;2023-07-30T09:59:53;1.42;;;0.90;;
47251;SDS011;32991;51.374;11.586;2023-07-30T10:02:19;1.73;;;1.00;;
47251;SDS011;32991;51.374;11.586;2023-07-30T10:04:47;1.23;;;1.00;;
47251;SDS011;32991;51.374;11.586;2023-07-30T10:07:16;2.38;;;1.10;;
47251;SDS011;32991;51.374;11.586;2023-07-30T10:09:45;1.35;;;0.90;;
47251;SDS011;32991;51.374;11.586;2023-07-30T10:12:14;4.15;;;1.23;;
47251;SDS011;32991;51.374;11.586;2023-07-30T10:14:42;1.50;;;1.05;;
47251;SDS011;32991;51.374;11.586;2023-07-30T10:17:10;2.28;;;1.15;;
47251;SDS011;32991;51.374;11.586;2023-07-30T10:19:38;1.70;;;1.00;;
47251;SDS011;32991;51.374;11.586;2023-07-30T10:24:40;1.20;;;1.10;;
47251;SDS011;32991;51.374;11.586;2023-07-30T10:27:08;2.35;;;1.40;;
47251;SDS011;32991;51.374;11.586;2023-07-30T10:29:36;2.78;;;1.20;;
47251;SDS011;32991;51.374;11.586;2023-07-30T10:32:07;2.22;;;0.90;;
47251;SDS011;32991;51.374;11.586;2023-07-30T10:34:44;1.80;;;1.08;;
47251;SDS011;32991;51.374;11.586;2023-07-30T10:37:17;1.13;;;1.00;;
47251;SDS011;32991;51.374;11.586;2023-07-30T10:39:44;2.75;;;1.33;;
47251;SDS011;32991;51.374;11.586;2023-07-30T10:42:14;3.75;;;1.50;;
47251;SDS011;32991;51.374;11.586;2023-07-30T10:44:43;2.20;;;1.25;;
47251;SDS011;32991;51.374;11.586;2023-07-30T10:47:10;2.30;;;1.33;;
47251;SDS011;32991;51.374;11.586;2023-07-30T10:50:00;3.78;;;1.60;;
47251;SDS011;32991;51.374;11.586;2023-07-30T10:52:28;3.92;;;1.20;;
47251;SDS011;32991;51.374;11.586;2023-07-30T10:55:00;1.77;;;1.20;;
47251;SDS011;32991;51.374;11.586;2023-07-30T10:57:30;4.15;;;1.55;;
47251;SDS011;32991;51.374;11.586;2023-07-30T10:59:59;1.98;;;1.13;;
47251;SDS011;32991;51.374;11.586;2023-07-30T11:02:27;4.25;;;1.13;;
47251;SDS011;32991;51.374;11.586;2023-07-30T11:04:55;1.88;;;1.20;;
47251;SDS011;32991;51.374;11.586;2023-07-30T11:07:21;2.53;;;1.50;;
47251;SDS011;32991;51.374;11.586;2023-07-30T11:09:57;1.67;;;1.35;;
47251;SDS011;32991;51.374;11.586;2023-07-30T11:12:25;3.17;;;1.33;;
47251;SDS011;32991;51.374;11.586;2023-07-30T11:14:59;1.73;;;1.20;;
47251;SDS011;32991;51.374;11.586;2023-07-30T11:17:27;3.15;;;1.45;;
47251;SDS011;32991;51.374;11.586;2023-07-30T11:19:53;2.50;;;1.40;;
47251;SDS011;32991;51.374;11.586;2023-07-30T11:22:28;2.15;;;1.50;;
47251;SDS011;32991;51.374;11.586;2023-07-30T11:24:58;2.03;;;1.50;;
47251;SDS011;32991;51.374;11.586;2023-07-30T11:27:25;1.23;;;1.10;;
47251;SDS011;32991;51.374;11.586;2023-07-30T11:29:57;2.70;;;1.70;;
47251;SDS011;32991;51.374;11.586;2023-07-30T11:32:26;1.88;;;1.40;;
47251;SDS011;32991;51.374;11.586;2023-07-30T11:34:53;3.85;;;1.48;;
47251;SDS011;32991;51.374;11.586;2023-07-30T11:37:20;2.00;;;1.42;;
47251;SDS011;32991;51.374;11.586;2023-07-30T11:39:48;3.03;;;1.40;;
47251;SDS011;32991;51.374;11.586;2023-07-30T11:42:15;3.35;;;1.70;;
47251;SDS011;32991;51.374;11.586;2023-07-30T11:44:42;2.30;;;1.65;;
47251;SDS011;32991;51.374;11.586;2023-07-30T11:47:09;3.63;;;1.92;;
47251;SDS011;32991;51.374;11.586;2023-07-30T11:49:36;2.58;;;1.70;;
47251;SDS011;32991;51.374;11.586;2023-07-30T11:52:09;6.97;;;1.77;;
47251;SDS011;32991;51.374;11.586;2023-07-30T11:54:36;5.60;;;1.70;;
47251;SDS011;32991;51.374;11.586;2023-07-30T11:57:03;8.85;;;2.85;;
47251;SDS011;32991;51.374;11.586;2023-07-30T11:59:31;4.13;;;2.42;;
47251;SDS011;32991;51.374;11.586;2023-07-30T12:01:58;6.85;;;2.88;;
47251;SDS011;32991;51.374;11.586;2023-07-30T12:04:25;4.00;;;2.72;;
47251;SDS011;32991;51.374;11.586;2023-07-30T12:06:52;4.75;;;2.58;;
47251;SDS011;32991;51.374;11.586;2023-07-30T12:09:20;8.88;;;2.80;;
47251;SDS011;32991;51.374;11.586;2023-07-30T12:11:53;5.75;;;2.45;;
47251;SDS011;32991;51.374;11.586;2023-07-30T12:14:24;5.05;;;2.85;;
47251;SDS011;32991;51.374;11.586;2023-07-30T12:16:57;4.57;;;3.10;;
47251;SDS011;32991;51.374;11.586;2023-07-30T12:19:24;4.43;;;3.83;;
47251;SDS011;32991;51.374;11.586;2023-07-30T12:21:51;7.20;;;4.28;;
47251;SDS011;32991;51.374;11.586;2023-07-30T12:24:18;8.02;;;4.47;;
47251;SDS011;32991;51.374;11.586;2023-07-30T12:26:45;6.68;;;4.82;;
47251;SDS011;32991;51.374;11.586;2023-07-30T12:29:12;6.57;;;4.45;;
47251;SDS011;32991;51.374;11.586;2023-07-30T12:31:38;7.82;;;4.45;;
47251;SDS011;32991;51.374;11.586;2023-07-30T12:34:05;6.85;;;4.40;;
47251;SDS011;32991;51.374;11.586;2023-07-30T12:36:32;9.73;;;4.40;;
47251;SDS011;32991;51.374;11.586;2023-07-30T12:38:59;4.95;;;4.47;;
47251;SDS011;32991;51.374;11.586;2023-07-30T12:41:25;4.68;;;4.25;;
47251;SDS011;32991;51.374;11.586;2023-07-30T12:43:56;4.93;;;4.30;;
47251;SDS011;32991;51.374;11.586;2023-07-30T12:46:25;4.50;;;4.10;;
47251;SDS011;32991;51.374;11.586;2023-07-30T12:48:56;6.00;;;4.38;;
47251;SDS011;32991;51.374;11.586;2023-07-30T12:51:22;4.93;;;3.90;;
47251;SDS011;32991;51.374;11.586;2023-07-30T12:53:49;4.97;;;3.42;;
47251;SDS011;32991;51.374;11.586;2023-07-30T12:56:15;6.40;;;3.60;;
47251;SDS011;32991;51.374;11.586;2023-07-30T12:58:42;3.30;;;2.63;;
47251;SDS011;32991;51.374;11.586;2023-07-30T13:01:09;3.00;;;2.72;;
47251;SDS011;32991;51.374;11.586;2023-07-30T13:03:35;5.18;;;2.35;;
47251;SDS011;32991;51.374;11.586;2023-07-30T13:06:03;2.63;;;2.28;;
47251;SDS011;32991;51.374;11.586;2023-07-30T13:08:29;2.63;;;2.33;;
47251;SDS011;32991;51.374;11.586;2023-07-30T13:10:56;4.55;;;2.38;;
47251;SDS011;32991;51.374;11.586;2023-07-30T13:13:23;4.72;;;2.83;;
47251;SDS011;32991;51.374;11.586;2023-07-30T13:15:50;3.25;;;2.70;;
47251;SDS011;32991;51.374;11.586;2023-07-30T13:18:16;4.70;;;2.60;;
47251;SDS011;32991;51.374;11.586;2023-07-30T13:20:43;4.22;;;2.70;;
47251;SDS011;32991;51.374;11.586;2023-07-30T13:23:09;3.88;;;3.05;;
47251;SDS011;32991;51.374;11.586;2023-07-30T13:25:37;3.72;;;3.00;;
47251;SDS011;32991;51.374;11.586;2023-07-30T13:28:04;3.88;;;2.85;;
47251;SDS011;32991;51.374;11.586;2023-07-30T13:30:30;3.63;;;2.95;;
47251;SDS011;32991;51.374;11.586;2023-07-30T13:32:57;3.42;;;2.70;;
47251;SDS011;32991;51.374;11.586;2023-07-30T13:35:24;3.80;;;3.20;;
47251;SDS011;32991;51.374;11.586;2023-07-30T13:37:50;5.78;;;2.97;;
47251;SDS011;32991;51.374;11.586;2023-07-30T13:40:17;3.72;;;2.90;;
47251;SDS011;32991;51.374;11.586;2023-07-30T13:42:43;4.50;;;3.00;;
47251;SDS011;32991;51.374;11.586;2023-07-30T13:45:10;4.93;;;2.63;;
47251;SDS011;32991;51.374;11.586;2023-07-30T13:47:37;4.40;;;2.58;;
47251;SDS011;32991;51.374;11.586;2023-07-30T13:50:04;2.40;;;2.20;;
47251;SDS011;32991;51.374;11.586;2023-07-30T13:52:31;2.75;;;2.35;;
47251;SDS011;32991;51.374;11.586;2023-07-30T13:54:57;2.55;;;2.10;;
47251;SDS011;32991;51.374;11.586;2023-07-30T13:57:24;2.67;;;1.70;;
47251;SDS011;32991;51.374;11.586;2023-07-30T13:59:52;2.08;;;1.50;;
47251;SDS011;32991;51.374;11.586;2023-07-30T14:02:19;1.52;;;1.42;;
47251;SDS011;32991;51.374;11.586;2023-07-30T14:04:45;3.40;;;1.50;;
47251;SDS011;32991;51.374;11.586;2023-07-30T14:07:12;0.90;;;0.90;;
47251;SDS011;32991;51.374;11.586;2023-07-30T14:09:39;1.95;;;1.27;;
47251;SDS011;32991;51.374;11.586;2023-07-30T14:12:06;2.60;;;1.20;;
47251;SDS011;32991;51.374;11.586;2023-07-30T14:14:33;0.93;;;0.93;;
47251;SDS011;32991;51.374;11.586;2023-07-30T14:17:00;2.17;;;1.10;;
47251;SDS011;32991;51.374;11.586;2023-07-30T14:19:33;2.05;;;1.08;;
47251;SDS011;32991;51.374;11.586;2023-07-30T14:22:00;1.00;;;1.00;;
47251;SDS011;32991;51.374;11.586;2023-07-30T14:24:27;1.60;;;1.33;;
47251;SDS011;32991;51.374;11.586;2023-07-30T14:26:53;1.48;;;1.20;;
47251;SDS011;32991;51.374;11.586;2023-07-30T14:29:20;3.53;;;1.27;;
47251;SDS011;32991;51.374;11.586;2023-07-30T14:31:47;5.10;;;1.10;;
47251;SDS011;32991;51.374;11.586;2023-07-30T14:34:14;2.60;;;1.40;;
47251;SDS011;32991;51.374;11.586;2023-07-30T14:36:40;1.60;;;1.27;;